createdAt,value
2023-03-23T15:59:58.226Z,22.10
2023-03-23T16:02:31.124Z,22.08
2023-03-23T16:05:03.980Z,22.07
2023-03-23T16:07:36.729Z,22.06
2023-03-23T16:10:15.928Z,22.03
2023-03-23T16:12:48.845Z,22.01
2023-03-23T16:15:23.211Z,22.00
2023-03-23T16:17:56.144Z,21.95
2023-03-23T16:20:30.114Z,21.93
2023-03-23T16:23:03.040Z,21.91
2023-03-23T16:25:35.878Z,21.86
2023-03-23T16:28:11.189Z,21.82
2023-03-23T16:30:45.861Z,21.79
2023-03-23T16:33:19.032Z,21.74
2023-03-23T16:35:51.935Z,21.71
2023-03-23T16:38:24.641Z,21.66
2023-03-23T16:40:57.369Z,21.60
2023-03-23T16:43:30.369Z,21.55
2023-03-23T16:46:04.833Z,21.50
2023-03-23T16:48:38.511Z,21.46
2023-03-23T16:51:11.438Z,21.38
2023-03-23T16:53:44.438Z,21.34
2023-03-23T16:56:17.189Z,21.28
2023-03-23T16:58:49.892Z,21.23
2023-03-23T17:01:24.214Z,21.16
2023-03-23T17:03:57.100Z,21.10
2023-03-23T17:06:29.946Z,21.04
2023-03-23T17:09:02.794Z,20.97
2023-03-23T17:11:35.850Z,20.91
2023-03-23T17:14:08.498Z,20.85
2023-03-23T17:16:42.724Z,20.78
2023-03-23T17:19:15.684Z,20.74
2023-03-23T17:21:48.435Z,20.68
2023-03-23T17:24:21.292Z,20.63
2023-03-23T17:26:54.226Z,20.58
2023-03-23T17:29:27.107Z,20.53
2023-03-23T17:32:01.160Z,20.48
2023-03-23T17:34:33.844Z,20.44
2023-03-23T17:37:06.700Z,20.39
2023-03-23T17:39:43.133Z,20.33
2023-03-23T17:42:16.162Z,20.29
2023-03-23T17:44:48.794Z,20.25
2023-03-23T17:47:23.926Z,20.22
2023-03-23T17:49:57.069Z,20.17
2023-03-23T17:52:29.933Z,20.15
2023-03-23T17:55:02.596Z,20.11
2023-03-23T17:57:36.003Z,20.06
2023-03-23T18:00:09.445Z,20.01
2023-03-23T18:02:43.692Z,19.98
2023-03-23T18:05:16.960Z,19.92
2023-03-23T18:07:50.170Z,19.89
2023-03-23T18:10:22.850Z,19.85
2023-03-23T18:12:55.709Z,19.81
2023-03-23T18:15:29.966Z,19.78
2023-03-23T18:18:05.224Z,19.74
2023-03-23T18:20:38.074Z,19.71
2023-03-23T18:23:10.986Z,19.66
2023-03-23T18:25:43.861Z,19.61
2023-03-23T18:28:17.380Z,19.57
2023-03-23T18:30:50.239Z,19.53
2023-03-23T18:33:25.898Z,19.49
2023-03-23T18:35:59.763Z,19.45
2023-03-23T18:38:39.177Z,19.41
2023-03-23T18:41:15.225Z,19.36
2023-03-23T18:43:48.074Z,19.33
2023-03-23T18:46:20.995Z,19.29
2023-03-23T18:48:55.495Z,19.25
2023-03-23T18:51:28.240Z,19.20
2023-03-23T18:54:01.341Z,19.18
2023-03-23T18:56:34.002Z,19.14
2023-03-23T18:59:07.415Z,19.12
2023-03-23T19:01:40.446Z,19.08
2023-03-23T19:04:14.802Z,19.05
2023-03-23T19:06:47.520Z,19.02
2023-03-23T19:09:20.726Z,18.98
2023-03-23T19:11:53.436Z,18.93
2023-03-23T19:14:26.221Z,18.88
2023-03-23T19:16:59.000Z,18.82
2023-03-23T19:19:33.224Z,18.76
2023-03-23T19:22:08.642Z,18.69
2023-03-23T19:24:41.488Z,18.63
2023-03-23T19:27:14.263Z,18.57
2023-03-23T19:29:47.512Z,18.51
2023-03-23T19:32:20.929Z,18.47
2023-03-23T19:34:55.475Z,18.41
2023-03-23T19:37:28.505Z,18.36
2023-03-23T19:40:06.643Z,18.29
2023-03-23T19:42:45.755Z,18.24
2023-03-23T19:45:19.048Z,18.18
2023-03-23T19:47:51.839Z,18.12
2023-03-23T19:50:26.410Z,18.05
2023-03-23T19:53:00.550Z,17.96
2023-03-23T19:55:33.546Z,17.90
2023-03-23T19:58:06.280Z,17.82
2023-03-23T20:00:39.245Z,17.78
2023-03-23T20:03:12.264Z,17.71
2023-03-23T20:05:48.450Z,17.67
2023-03-23T20:08:21.974Z,17.61
2023-03-23T20:11:02.029Z,17.58
2023-03-23T20:13:34.830Z,17.55
2023-03-23T20:16:08.213Z,17.51
2023-03-23T20:18:41.454Z,17.48
2023-03-23T20:21:19.646Z,17.45
2023-03-23T20:23:54.141Z,17.43
2023-03-23T20:26:27.796Z,17.40
2023-03-23T20:29:00.689Z,17.39
2023-03-23T20:31:36.632Z,17.34
2023-03-23T20:34:10.959Z,17.30
2023-03-23T20:36:46.224Z,17.27
2023-03-23T20:39:21.398Z,17.24
2023-03-23T20:41:58.649Z,17.20
2023-03-23T20:44:36.159Z,17.15
2023-03-23T20:47:09.903Z,17.12
2023-03-23T20:49:42.616Z,17.08
2023-03-23T20:52:27.514Z,17.03
2023-03-23T20:55:00.955Z,16.98
2023-03-23T20:57:34.344Z,16.92
2023-03-23T21:00:09.444Z,16.86
2023-03-23T21:02:42.433Z,16.77
2023-03-23T21:05:15.557Z,16.69
2023-03-23T21:07:51.042Z,16.61
2023-03-23T21:10:25.783Z,16.52
2023-03-23T21:12:58.789Z,16.44
2023-03-23T21:15:32.276Z,16.34
2023-03-23T21:18:05.189Z,16.25
2023-03-23T21:20:38.857Z,16.17
2023-03-23T21:23:14.880Z,16.10
2023-03-23T21:25:47.882Z,16.02
2023-03-23T21:28:20.864Z,15.97
2023-03-23T21:30:54.744Z,15.93
2023-03-23T21:33:28.175Z,15.90
2023-03-23T21:36:01.218Z,15.88
2023-03-23T21:38:35.507Z,15.86
2023-03-23T21:41:09.563Z,15.85
2023-03-23T21:43:45.857Z,15.83
2023-03-23T21:46:19.276Z,15.82
2023-03-23T21:48:52.357Z,15.81
2023-03-23T21:51:25.984Z,15.82
2023-03-23T21:54:00.139Z,15.82
2023-03-23T21:56:33.148Z,15.82
2023-03-23T21:59:07.695Z,15.82
2023-03-23T22:01:41.429Z,15.82
2023-03-23T22:04:14.236Z,15.83
2023-03-23T22:06:47.964Z,15.82
2023-03-23T22:09:22.059Z,15.84
2023-03-23T22:11:55.053Z,15.83
2023-03-23T22:14:27.853Z,15.83
2023-03-23T22:17:01.165Z,15.83
2023-03-23T22:19:34.260Z,15.84
2023-03-23T22:22:07.178Z,15.84
2023-03-23T22:24:41.680Z,15.84
2023-03-23T22:27:14.710Z,15.84
2023-03-23T22:29:47.373Z,15.83
2023-03-23T22:32:20.481Z,15.84
2023-03-23T22:34:53.693Z,15.85
2023-03-23T22:37:26.483Z,15.86
2023-03-23T22:40:01.047Z,15.85
2023-03-23T22:42:33.831Z,15.88
2023-03-23T22:45:09.077Z,15.90
2023-03-23T22:47:41.913Z,15.92
2023-03-23T22:50:14.743Z,15.93
2023-03-23T22:52:47.414Z,15.96
2023-03-23T22:55:21.577Z,15.98
2023-03-23T22:57:54.410Z,15.99
2023-03-23T23:00:27.543Z,16.01
2023-03-23T23:03:00.253Z,16.03
2023-03-23T23:05:33.097Z,16.05
2023-03-23T23:08:05.919Z,16.06
2023-03-23T23:10:40.379Z,16.06
2023-03-23T23:13:14.022Z,16.08
2023-03-23T23:15:48.621Z,16.08
2023-03-23T23:18:21.843Z,16.08
2023-03-23T23:20:55.828Z,16.05
2023-03-23T23:23:29.252Z,16.03
2023-03-23T23:26:03.802Z,16.02
2023-03-23T23:28:37.316Z,15.99
2023-03-23T23:31:19.521Z,15.97
2023-03-23T23:33:52.216Z,15.94
2023-03-23T23:36:28.133Z,15.91
2023-03-23T23:39:02.316Z,15.89
2023-03-23T23:41:36.735Z,15.87
2023-03-23T23:44:09.516Z,15.85
2023-03-23T23:46:42.358Z,15.82
2023-03-23T23:49:15.108Z,15.82
2023-03-23T23:51:48.430Z,15.84
2023-03-23T23:54:22.985Z,15.82
2023-03-23T23:56:57.286Z,15.84
2023-03-23T23:59:30.451Z,15.84
